sensor_id;sensor_type;location;lat;lon;timestamp;pressure;altitude;pressure_sealevel;temperature;humidity
20009;BME280;10165;42.662;23.260;2023-11-18T00:01:42;93456.91;;;8.91;64.37
20009;BME280;10165;42.662;23.260;2023-11-18T00:04:09;93447.19;;;9.18;64.07
20009;BME280;10165;42.662;23.260;2023-11-18T00:06:43;93448.66;;;9.53;62.58
20009;BME280;10165;42.662;23.260;2023-11-18T00:09:13;93449.13;;;9.40;62.71
20009;BME280;10165;42.662;23.260;2023-11-18T00:11:40;93434.97;;;9.78;62.68
20009;BME280;10165;42.662;23.260;2023-11-18T00:14:07;93451.19;;;9.27;62.84
20009;BME280;10165;42.662;23.260;2023-11-18T00:16:34;93457.50;;;9.38;62.99
20009;BME280;10165;42.662;23.260;2023-11-18T00:19:01;93473.09;;;9.59;62.60
20009;BME280;10165;42.662;23.260;2023-11-18T00:21:36;93483.00;;;9.20;62.58
20009;BME280;10165;42.662;23.260;2023-11-18T00:24:03;93465.56;;;9.23;63.38
20009;BME280;10165;42.662;23.260;2023-11-18T00:26:30;93455.28;;;9.63;62.49
20009;BME280;10165;42.662;23.260;2023-11-18T00:28:57;93440.78;;;9.83;61.15
20009;BME280;10165;42.662;23.260;2023-11-18T00:31:23;93441.00;;;9.33;62.07
20009;BME280;10165;42.662;23.260;2023-11-18T00:33:51;93445.44;;;9.67;60.99
20009;BME280;10165;42.662;23.260;2023-11-18T00:36:19;93442.56;;;9.15;63.37
20009;BME280;10165;42.662;23.260;2023-11-18T00:38:45;93440.31;;;9.36;63.00
20009;BME280;10165;42.662;23.260;2023-11-18T00:41:12;93451.22;;;8.73;63.58
20009;BME280;10165;42.662;23.260;2023-11-18T00:43:39;93452.38;;;8.56;64.57
20009;BME280;10165;42.662;23.260;2023-11-18T00:46:06;93456.28;;;8.28;64.98
20009;BME280;10165;42.662;23.260;2023-11-18T00:48:33;93456.44;;;8.50;65.42
20009;BME280;10165;42.662;23.260;2023-11-18T00:50:59;93460.22;;;8.34;65.14
20009;BME280;10165;42.662;23.260;2023-11-18T00:53:26;93468.09;;;8.14;64.78
20009;BME280;10165;42.662;23.260;2023-11-18T00:55:53;93459.03;;;8.31;64.90
20009;BME280;10165;42.662;23.260;2023-11-18T00:58:20;93461.84;;;8.89;63.94
20009;BME280;10165;42.662;23.260;2023-11-18T01:00:46;93463.97;;;8.83;63.68
20009;BME280;10165;42.662;23.260;2023-11-18T01:03:13;93458.84;;;8.75;63.57
20009;BME280;10165;42.662;23.260;2023-11-18T01:05:40;93475.06;;;8.03;65.22
20009;BME280;10165;42.662;23.260;2023-11-18T01:08:07;93469.97;;;8.61;64.29
20009;BME280;10165;42.662;23.260;2023-11-18T01:10:35;93471.16;;;8.63;63.92
20009;BME280;10165;42.662;23.260;2023-11-18T01:13:02;93482.38;;;8.38;65.08
20009;BME280;10165;42.662;23.260;2023-11-18T01:15:28;93478.66;;;8.93;64.34
20009;BME280;10165;42.662;23.260;2023-11-18T01:17:55;93485.09;;;8.57;64.42
20009;BME280;10165;42.662;23.260;2023-11-18T01:20:26;93497.63;;;8.09;64.96
20009;BME280;10165;42.662;23.260;2023-11-18T01:22:54;93491.72;;;8.32;65.49
20009;BME280;10165;42.662;23.260;2023-11-18T01:25:21;93485.88;;;8.26;64.09
20009;BME280;10165;42.662;23.260;2023-11-18T01:27:48;93475.66;;;8.44;64.37
20009;BME280;10165;42.662;23.260;2023-11-18T01:30:15;93470.97;;;8.72;63.80
20009;BME280;10165;42.662;23.260;2023-11-18T01:32:42;93478.13;;;8.68;64.03
20009;BME280;10165;42.662;23.260;2023-11-18T01:35:09;93481.59;;;8.37;64.69
20009;BME280;10165;42.662;23.260;2023-11-18T01:37:39;93480.97;;;8.59;64.87
20009;BME280;10165;42.662;23.260;2023-11-18T01:40:07;93480.72;;;8.49;63.87
20009;BME280;10165;42.662;23.260;2023-11-18T01:42:43;93477.53;;;8.43;64.17
20009;BME280;10165;42.662;23.260;2023-11-18T01:45:10;93487.53;;;8.31;64.48
20009;BME280;10165;42.662;23.260;2023-11-18T01:47:39;93475.38;;;8.64;62.89
20009;BME280;10165;42.662;23.260;2023-11-18T01:50:07;93480.81;;;8.52;63.08
20009;BME280;10165;42.662;23.260;2023-11-18T01:52:35;93480.13;;;8.40;63.58
20009;BME280;10165;42.662;23.260;2023-11-18T01:55:02;93484.06;;;8.61;62.74
20009;BME280;10165;42.662;23.260;2023-11-18T01:57:34;93490.50;;;8.13;63.58
20009;BME280;10165;42.662;23.260;2023-11-18T02:00:01;93499.25;;;7.39;65.19
20009;BME280;10165;42.662;23.260;2023-11-18T02:02:32;93493.50;;;7.96;63.46
20009;BME280;10165;42.662;23.260;2023-11-18T02:05:00;93499.69;;;8.00;62.76
20009;BME280;10165;42.662;23.260;2023-11-18T02:07:28;93499.28;;;7.55;64.41
20009;BME280;10165;42.662;23.260;2023-11-18T02:09:55;93502.25;;;7.53;64.55
20009;BME280;10165;42.662;23.260;2023-11-18T02:15:08;93499.41;;;7.74;63.73
20009;BME280;10165;42.662;23.260;2023-11-18T02:17:41;93503.38;;;7.52;63.55
20009;BME280;10165;42.662;23.260;2023-11-18T02:20:10;93491.19;;;7.36;62.99
20009;BME280;10165;42.662;23.260;2023-11-18T02:22:43;93500.97;;;7.19;63.82
20009;BME280;10165;42.662;23.260;2023-11-18T02:25:15;93500.53;;;7.45;63.56
20009;BME280;10165;42.662;23.260;2023-11-18T02:27:42;93498.00;;;7.64;61.95
20009;BME280;10165;42.662;23.260;2023-11-18T02:30:10;93499.22;;;7.83;60.57
20009;BME280;10165;42.662;23.260;2023-11-18T02:32:45;93488.88;;;7.93;61.24
20009;BME280;10165;42.662;23.260;2023-11-18T02:35:23;93496.19;;;7.25;61.74
20009;BME280;10165;42.662;23.260;2023-11-18T02:37:54;93498.44;;;7.66;62.34
20009;BME280;10165;42.662;23.260;2023-11-18T02:40:29;93490.56;;;7.86;59.47
20009;BME280;10165;42.662;23.260;2023-11-18T02:43:00;93496.69;;;7.43;61.11
20009;BME280;10165;42.662;23.260;2023-11-18T02:45:27;93498.19;;;7.44;60.29
20009;BME280;10165;42.662;23.260;2023-11-18T02:47:54;93503.00;;;7.66;60.14
20009;BME280;10165;42.662;23.260;2023-11-18T02:50:25;93500.50;;;7.73;59.42
20009;BME280;10165;42.662;23.260;2023-11-18T02:52:51;93509.13;;;7.27;60.01
20009;BME280;10165;42.662;23.260;2023-11-18T02:55:19;93509.53;;;7.29;61.44
20009;BME280;10165;42.662;23.260;2023-11-18T02:57:49;93502.06;;;7.74;60.04
20009;BME280;10165;42.662;23.260;2023-11-18T03:00:18;93491.31;;;7.55;59.25
20009;BME280;10165;42.662;23.260;2023-11-18T03:02:49;93504.47;;;6.96;60.18
20009;BME280;10165;42.662;23.260;2023-11-18T03:05:18;93527.78;;;7.02;60.25
20009;BME280;10165;42.662;23.260;2023-11-18T03:07:45;93533.91;;;7.31;59.94
20009;BME280;10165;42.662;23.260;2023-11-18T03:10:16;93533.84;;;7.15;60.24
20009;BME280;10165;42.662;23.260;2023-11-18T03:12:53;93538.56;;;6.45;60.50
20009;BME280;10165;42.662;23.260;2023-11-18T03:15:22;93527.44;;;7.04;59.87
20009;BME280;10165;42.662;23.260;2023-11-18T03:17:50;93547.16;;;6.79;60.61
20009;BME280;10165;42.662;23.260;2023-11-18T03:20:19;93549.66;;;7.11;59.88
20009;BME280;10165;42.662;23.260;2023-11-18T03:22:46;93559.88;;;6.97;59.19
20009;BME280;10165;42.662;23.260;2023-11-18T03:25:14;93565.88;;;6.82;61.35
20009;BME280;10165;42.662;23.260;2023-11-18T03:27:41;93554.03;;;6.80;60.74
20009;BME280;10165;42.662;23.260;2023-11-18T03:30:08;93554.22;;;6.99;60.11
20009;BME280;10165;42.662;23.260;2023-11-18T03:32:37;93559.38;;;7.19;59.07
20009;BME280;10165;42.662;23.260;2023-11-18T03:35:06;93558.03;;;6.61;60.61
20009;BME280;10165;42.662;23.260;2023-11-18T03:37:40;93559.88;;;6.97;60.65
20009;BME280;10165;42.662;23.260;2023-11-18T03:40:14;93553.38;;;6.46;60.60
20009;BME280;10165;42.662;23.260;2023-11-18T03:42:41;93547.72;;;6.48;60.71
20009;BME280;10165;42.662;23.260;2023-11-18T03:45:08;93566.41;;;6.27;61.09
20009;BME280;10165;42.662;23.260;2023-11-18T03:47:36;93573.09;;;6.00;62.29
20009;BME280;10165;42.662;23.260;2023-11-18T03:50:03;93573.13;;;6.12;61.53
20009;BME280;10165;42.662;23.260;2023-11-18T03:52:30;93562.66;;;6.64;59.86
20009;BME280;10165;42.662;23.260;2023-11-18T03:54:57;93544.31;;;6.23;61.21
20009;BME280;10165;42.662;23.260;2023-11-18T03:57:23;93567.34;;;5.98;61.69
20009;BME280;10165;42.662;23.260;2023-11-18T03:59:50;93556.53;;;6.03;62.07
20009;BME280;10165;42.662;23.260;2023-11-18T04:02:18;93571.59;;;5.78;60.96
20009;BME280;10165;42.662;23.260;2023-11-18T04:04:44;93573.25;;;5.83;61.75
20009;BME280;10165;42.662;23.260;2023-11-18T04:07:14;93577.19;;;5.98;60.62
20009;BME280;10165;42.662;23.260;2023-11-18T04:09:41;93563.84;;;6.06;60.89
20009;BME280;10165;42.662;23.260;2023-11-18T04:12:13;93567.06;;;6.12;60.40
20009;BME280;10165;42.662;23.260;2023-11-18T04:14:40;93555.00;;;6.14;60.48
20009;BME280;10165;42.662;23.260;2023-11-18T04:17:11;93583.56;;;6.42;59.36
20009;BME280;10165;42.662;23.260;2023-11-18T04:19:38;93570.47;;;6.00;59.80
20009;BME280;10165;42.662;23.260;2023-11-18T04:22:05;93575.88;;;5.83;60.40
20009;BME280;10165;42.662;23.260;2023-11-18T04:24:32;93584.13;;;5.90;60.48
20009;BME280;10165;42.662;23.260;2023-11-18T04:27:01;93593.06;;;5.65;60.60
20009;BME280;10165;42.662;23.260;2023-11-18T04:29:33;93587.66;;;5.94;59.25
20009;BME280;10165;42.662;23.260;2023-11-18T04:32:02;93582.63;;;6.13;59.85
20009;BME280;10165;42.662;23.260;2023-11-18T04:34:29;93575.66;;;5.97;59.72
20009;BME280;10165;42.662;23.260;2023-11-18T04:36:56;93592.59;;;6.16;59.21
20009;BME280;10165;42.662;23.260;2023-11-18T04:39:23;93592.31;;;5.76;60.41
20009;BME280;10165;42.662;23.260;2023-11-18T04:41:54;93604.44;;;6.43;58.92
20009;BME280;10165;42.662;23.260;2023-11-18T04:44:32;93590.16;;;6.23;58.31
20009;BME280;10165;42.662;23.260;2023-11-18T04:46:58;93598.41;;;5.98;59.93
20009;BME280;10165;42.662;23.260;2023-11-18T04:49:26;93597.78;;;6.37;57.99
20009;BME280;10165;42.662;23.260;2023-11-18T04:51:53;93598.03;;;5.66;59.42
20009;BME280;10165;42.662;23.260;2023-11-18T04:54:19;93603.97;;;6.29;58.37
20009;BME280;10165;42.662;23.260;2023-11-18T04:56:47;93603.34;;;6.56;58.01
20009;BME280;10165;42.662;23.260;2023-11-18T04:59:20;93599.84;;;6.07;58.70
20009;BME280;10165;42.662;23.260;2023-11-18T05:01:47;93593.09;;;5.98;58.97
20009;BME280;10165;42.662;23.260;2023-11-18T05:04:14;93589.94;;;6.16;58.72
20009;BME280;10165;42.662;23.260;2023-11-18T05:06:42;93583.13;;;5.95;58.07
20009;BME280;10165;42.662;23.260;2023-11-18T05:09:09;93577.97;;;5.77;59.39
20009;BME280;10165;42.662;23.260;2023-11-18T05:11:36;93578.19;;;5.72;58.84
20009;BME280;10165;42.662;23.260;2023-11-18T05:14:05;93572.03;;;5.48;58.87
20009;BME280;10165;42.662;23.260;2023-11-18T05:16:33;93572.88;;;5.40;59.80
20009;BME280;10165;42.662;23.260;2023-11-18T05:19:00;93563.66;;;5.78;58.77
20009;BME280;10165;42.662;23.260;2023-11-18T05:21:27;93572.47;;;5.50;59.14
20009;BME280;10165;42.662;23.260;2023-11-18T05:23:55;93561.88;;;5.83;58.79
20009;BME280;10165;42.662;23.260;2023-11-18T05:26:22;93558.44;;;6.15;57.44
20009;BME280;10165;42.662;23.260;2023-11-18T05:28:48;93553.47;;;6.25;57.58
20009;BME280;10165;42.662;23.260;2023-11-18T05:31:16;93555.00;;;6.14;57.37
20009;BME280;10165;42.662;23.260;2023-11-18T05:33:52;93568.56;;;5.68;57.86
20009;BME280;10165;42.662;23.260;2023-11-18T05:36:22;93568.94;;;5.78;57.87
20009;BME280;10165;42.662;23.260;2023-11-18T05:38:54;93575.09;;;5.17;58.68
20009;BME280;10165;42.662;23.260;2023-11-18T05:41:21;93560.13;;;5.87;57.50
20009;BME280;10165;42.662;23.260;2023-11-18T05:43:55;93557.91;;;5.56;58.50
20009;BME280;10165;42.662;23.260;2023-11-18T05:46:25;93557.72;;;5.61;56.71
20009;BME280;10165;42.662;23.260;2023-11-18T05:48:56;93548.44;;;5.88;57.12
20009;BME280;10165;42.662;23.260;2023-11-18T05:51:25;93552.28;;;5.78;57.15
20009;BME280;10165;42.662;23.260;2023-11-18T05:53:53;93550.50;;;5.49;58.77
20009;BME280;10165;42.662;23.260;2023-11-18T05:56:20;93548.94;;;5.48;58.62
20009;BME280;10165;42.662;23.260;2023-11-18T05:58:52;93547.84;;;5.49;58.44
20009;BME280;10165;42.662;23.260;2023-11-18T06:01:22;93565.94;;;5.80;57.25
20009;BME280;10165;42.662;23.260;2023-11-18T06:03:49;93561.53;;;6.05;56.87
20009;BME280;10165;42.662;23.260;2023-11-18T06:06:16;93584.28;;;5.52;57.63
20009;BME280;10165;42.662;23.260;2023-11-18T06:08:49;93582.81;;;5.43;58.56
20009;BME280;10165;42.662;23.260;2023-11-18T06:11:16;93578.97;;;5.73;57.35
20009;BME280;10165;42.662;23.260;2023-11-18T06:13:50;93576.38;;;5.64;57.87
20009;BME280;10165;42.662;23.260;2023-11-18T06:16:18;93590.22;;;5.49;59.07
20009;BME280;10165;42.662;23.260;2023-11-18T06:18:52;93585.16;;;5.23;60.31
20009;BME280;10165;42.662;23.260;2023-11-18T06:21:21;93593.28;;;4.98;61.71
20009;BME280;10165;42.662;23.260;2023-11-18T06:23:51;93595.75;;;5.44;60.66
20009;BME280;10165;42.662;23.260;2023-11-18T06:26:18;93587.50;;;5.58;59.29
20009;BME280;10165;42.662;23.260;2023-11-18T06:28:47;93585.91;;;5.45;59.62
20009;BME280;10165;42.662;23.260;2023-11-18T06:31:15;93587.28;;;6.16;58.19
20009;BME280;10165;42.662;23.260;2023-11-18T06:33:43;93586.31;;;5.88;59.13
20009;BME280;10165;42.662;23.260;2023-11-18T06:38:41;93587.44;;;5.66;58.77
20009;BME280;10165;42.662;23.260;2023-11-18T06:41:08;93597.50;;;5.73;58.33
20009;BME280;10165;42.662;23.260;2023-11-18T06:43:38;93584.53;;;6.13;57.83
20009;BME280;10165;42.662;23.260;2023-11-18T06:46:30;93580.97;;;6.09;58.09
20009;BME280;10165;42.662;23.260;2023-11-18T06:49:02;93576.16;;;6.35;57.42
20009;BME280;10165;42.662;23.260;2023-11-18T06:51:35;93580.31;;;6.12;56.31
20009;BME280;10165;42.662;23.260;2023-11-18T06:54:04;93580.09;;;6.29;56.29
20009;BME280;10165;42.662;23.260;2023-11-18T06:56:41;93589.50;;;6.27;55.97
20009;BME280;10165;42.662;23.260;2023-11-18T06:59:12;93585.88;;;5.86;57.37
20009;BME280;10165;42.662;23.260;2023-11-18T07:01:41;93597.66;;;6.09;56.46
20009;BME280;10165;42.662;23.260;2023-11-18T07:04:12;93595.16;;;5.92;56.41
20009;BME280;10165;42.662;23.260;2023-11-18T07:06:41;93607.69;;;5.83;56.93
20009;BME280;10165;42.662;23.260;2023-11-18T07:09:10;93600.94;;;5.73;56.78
20009;BME280;10165;42.662;23.260;2023-11-18T07:11:44;93601.78;;;5.86;57.26
20009;BME280;10165;42.662;23.260;2023-11-18T07:14:13;93593.78;;;6.19;56.13
20009;BME280;10165;42.662;23.260;2023-11-18T07:16:42;93611.84;;;5.93;55.63
20009;BME280;10165;42.662;23.260;2023-11-18T07:19:10;93602.78;;;5.40;57.03
20009;BME280;10165;42.662;23.260;2023-11-18T07:21:41;93597.50;;;5.73;56.61
20009;BME280;10165;42.662;23.260;2023-11-18T07:24:08;93604.63;;;5.60;56.29
20009;BME280;10165;42.662;23.260;2023-11-18T07:26:35;93625.03;;;5.18;57.26
20009;BME280;10165;42.662;23.260;2023-11-18T07:29:02;93620.53;;;5.40;57.42
20009;BME280;10165;42.662;23.260;2023-11-18T07:31:28;93609.13;;;6.01;57.03
20009;BME280;10165;42.662;23.260;2023-11-18T07:33:55;93625.84;;;5.40;57.69
20009;BME280;10165;42.662;23.260;2023-11-18T07:36:23;93625.47;;;6.03;56.31
20009;BME280;10165;42.662;23.260;2023-11-18T07:38:49;93647.91;;;6.18;55.58
20009;BME280;10165;42.662;23.260;2023-11-18T07:41:19;93637.13;;;5.49;57.96
20009;BME280;10165;42.662;23.260;2023-11-18T07:43:57;93629.81;;;6.20;57.06
20009;BME280;10165;42.662;23.260;2023-11-18T07:46:24;93637.28;;;6.06;57.47
20009;BME280;10165;42.662;23.260;2023-11-18T07:48:52;93645.00;;;6.32;57.14
20009;BME280;10165;42.662;23.260;2023-11-18T07:51:19;93639.13;;;5.93;57.37
20009;BME280;10165;42.662;23.260;2023-11-18T07:53:50;93655.47;;;5.95;57.73
20009;BME280;10165;42.662;23.260;2023-11-18T07:56:17;93646.59;;;5.29;58.81
20009;BME280;10165;42.662;23.260;2023-11-18T07:58:44;93642.34;;;5.57;58.53
20009;BME280;10165;42.662;23.260;2023-11-18T08:01:17;93637.84;;;5.16;60.03
20009;BME280;10165;42.662;23.260;2023-11-18T08:03:44;93637.44;;;5.26;59.02
20009;BME280;10165;42.662;23.260;2023-11-18T08:06:11;93632.84;;;5.15;59.83
20009;BME280;10165;42.662;23.260;2023-11-18T08:08:39;93628.81;;;5.59;58.58
20009;BME280;10165;42.662;23.260;2023-11-18T08:11:10;93646.28;;;5.30;59.10
20009;BME280;10165;42.662;23.260;2023-11-18T08:13:38;93627.75;;;5.93;58.00
20009;BME280;10165;42.662;23.260;2023-11-18T08:16:05;93640.69;;;5.73;57.75
20009;BME280;10165;42.662;23.260;2023-11-18T08:18:35;93635.38;;;5.53;58.21
20009;BME280;10165;42.662;23.260;2023-11-18T08:21:03;93641.25;;;5.38;57.80
20009;BME280;10165;42.662;23.260;2023-11-18T08:23:33;93646.56;;;5.38;58.54
20009;BME280;10165;42.662;23.260;2023-11-18T08:26:00;93650.63;;;5.35;58.29
20009;BME280;10165;42.662;23.260;2023-11-18T08:28:27;93654.75;;;5.65;57.75
20009;BME280;10165;42.662;23.260;2023-11-18T08:30:54;93659.63;;;5.63;57.91
20009;BME280;10165;42.662;23.260;2023-11-18T08:33:21;93653.78;;;5.70;58.09
20009;BME280;10165;42.662;23.260;2023-11-18T08:35:50;93666.72;;;5.51;58.54
20009;BME280;10165;42.662;23.260;2023-11-18T08:38:17;93659.16;;;5.41;58.60
20009;BME280;10165;42.662;23.260;2023-11-18T08:40:44;93673.69;;;5.35;57.88
20009;BME280;10165;42.662;23.260;2023-11-18T08:43:12;93666.59;;;4.97;59.25
20009;BME280;10165;42.662;23.260;2023-11-18T08:45:39;93672.84;;;5.43;58.35
20009;BME280;10165;42.662;23.260;2023-11-18T08:48:07;93672.19;;;5.46;58.15
20009;BME280;10165;42.662;23.260;2023-11-18T08:50:36;93686.31;;;5.08;59.06
20009;BME280;10165;42.662;23.260;2023-11-18T08:53:06;93712.94;;;5.03;59.78
20009;BME280;10165;42.662;23.260;2023-11-18T08:55:37;93690.41;;;5.26;59.37
20009;BME280;10165;42.662;23.260;2023-11-18T08:58:10;93700.16;;;5.35;58.58
20009;BME280;10165;42.662;23.260;2023-11-18T09:00:53;93706.28;;;5.26;58.81
20009;BME280;10165;42.662;23.260;2023-11-18T09:03:23;93691.47;;;5.55;58.32
20009;BME280;10165;42.662;23.260;2023-11-18T09:06:05;93697.72;;;4.92;58.53
20009;BME280;10165;42.662;23.260;2023-11-18T09:08:36;93694.25;;;5.29;58.43
20009;BME280;10165;42.662;23.260;2023-11-18T09:11:07;93681.78;;;5.59;58.53
20009;BME280;10165;42.662;23.260;2023-11-18T09:13:35;93678.09;;;5.01;58.70
20009;BME280;10165;42.662;23.260;2023-11-18T09:16:06;93692.41;;;5.00;58.58
20009;BME280;10165;42.662;23.260;2023-11-18T09:18:38;93681.06;;;4.62;58.88
20009;BME280;10165;42.662;23.260;2023-11-18T09:21:09;93670.50;;;5.41;58.42
20009;BME280;10165;42.662;23.260;2023-11-18T09:23:42;93672.06;;;5.42;57.27
20009;BME280;10165;42.662;23.260;2023-11-18T09:26:09;93673.97;;;5.12;58.02
20009;BME280;10165;42.662;23.260;2023-11-18T09:28:37;93673.00;;;5.88;57.20
20009;BME280;10165;42.662;23.260;2023-11-18T09:31:05;93663.56;;;5.78;56.81
20009;BME280;10165;42.662;23.260;2023-11-18T09:33:33;93670.03;;;5.48;57.07
20009;BME280;10165;42.662;23.260;2023-11-18T09:36:03;93668.41;;;5.05;58.21
20009;BME280;10165;42.662;23.260;2023-11-18T09:38:32;93672.63;;;6.10;56.02
20009;BME280;10165;42.662;23.260;2023-11-18T09:41:00;93663.25;;;5.59;57.18
20009;BME280;10165;42.662;23.260;2023-11-18T09:43:30;93668.53;;;5.59;56.73
20009;BME280;10165;42.662;23.260;2023-11-18T09:46:06;93670.03;;;5.18;58.21
20009;BME280;10165;42.662;23.260;2023-11-18T09:48:49;93675.72;;;5.08;58.30
20009;BME280;10165;42.662;23.260;2023-11-18T09:51:21;93642.81;;;6.01;55.94
20009;BME280;10165;42.662;23.260;2023-11-18T09:53:50;93654.63;;;5.41;57.21
20009;BME280;10165;42.662;23.260;2023-11-18T09:59:16;93654.19;;;5.39;56.84
20009;BME280;10165;42.662;23.260;2023-11-18T10:01:51;93653.66;;;5.46;56.97
20009;BME280;10165;42.662;23.260;2023-11-18T10:04:20;93662.66;;;5.53;56.49
20009;BME280;10165;42.662;23.260;2023-11-18T10:06:47;93651.84;;;5.79;55.60
20009;BME280;10165;42.662;23.260;2023-11-18T10:09:16;93653.59;;;5.34;56.69
20009;BME280;10165;42.662;23.260;2023-11-18T10:11:47;93655.41;;;5.21;56.54
20009;BME280;10165;42.662;23.260;2023-11-18T10:14:14;93659.72;;;5.25;56.54
20009;BME280;10165;42.662;23.260;2023-11-18T10:16:45;93636.22;;;5.45;56.68
20009;BME280;10165;42.662;23.260;2023-11-18T10:19:14;93642.69;;;5.35;55.93
20009;BME280;10165;42.662;23.260;2023-11-18T10:21:45;93638.66;;;5.29;56.30
20009;BME280;10165;42.662;23.260;2023-11-18T10:24:16;93625.56;;;5.53;55.55
20009;BME280;10165;42.662;23.260;2023-11-18T10:26:55;93649.69;;;5.10;56.81
20009;BME280;10165;42.662;23.260;2023-11-18T10:29:26;93668.28;;;5.02;56.99
20009;BME280;10165;42.662;23.260;2023-11-18T10:32:05;93663.69;;;5.11;56.52
20009;BME280;10165;42.662;23.260;2023-11-18T10:34:36;93652.78;;;5.62;55.34
20009;BME280;10165;42.662;23.260;2023-11-18T10:37:03;93666.19;;;5.37;55.42
20009;BME280;10165;42.662;23.260;2023-11-18T10:39:31;93650.50;;;5.73;54.80
20009;BME280;10165;42.662;23.260;2023-11-18T10:41:59;93653.19;;;5.85;54.66
20009;BME280;10165;42.662;23.260;2023-11-18T10:44:29;93665.81;;;5.47;54.98
20009;BME280;10165;42.662;23.260;2023-11-18T10:46:58;93674.66;;;5.51;54.41
20009;BME280;10165;42.662;23.260;2023-11-18T10:49:28;93659.22;;;5.94;53.70
20009;BME280;10165;42.662;23.260;2023-11-18T10:51:56;93658.56;;;5.76;54.51
20009;BME280;10165;42.662;23.260;2023-11-18T10:54:29;93663.09;;;5.35;55.19
20009;BME280;10165;42.662;23.260;2023-11-18T10:56:56;93662.00;;;5.77;54.68
20009;BME280;10165;42.662;23.260;2023-11-18T10:59:30;93646.31;;;5.51;54.40
20009;BME280;10165;42.662;23.260;2023-11-18T11:01:57;93662.00;;;5.36;54.78
20009;BME280;10165;42.662;23.260;2023-11-18T11:04:24;93658.84;;;5.42;54.97
20009;BME280;10165;42.662;23.260;2023-11-18T11:06:51;93662.97;;;5.93;54.00
20009;BME280;10165;42.662;23.260;2023-11-18T11:09:24;93656.31;;;5.46;54.54
20009;BME280;10165;42.662;23.260;2023-11-18T11:11:59;93661.78;;;5.41;54.80
20009;BME280;10165;42.662;23.260;2023-11-18T11:14:34;93663.75;;;5.02;56.01
20009;BME280;10165;42.662;23.260;2023-11-18T11:17:12;93666.19;;;5.99;54.40
20009;BME280;10165;42.662;23.260;2023-11-18T11:20:17;93657.50;;;6.10;53.23
20009;BME280;10165;42.662;23.260;2023-11-18T11:23:08;93656.75;;;6.55;52.66
20009;BME280;10165;42.662;23.260;2023-11-18T11:28:23;93649.84;;;5.97;53.62
20009;BME280;10165;42.662;23.260;2023-11-18T11:30:59;93663.03;;;6.05;53.45
20009;BME280;10165;42.662;23.260;2023-11-18T11:33:43;93652.69;;;5.92;54.14
20009;BME280;10165;42.662;23.260;2023-11-18T11:36:18;93650.38;;;5.90;53.68
20009;BME280;10165;42.662;23.260;2023-11-18T11:38:52;93656.81;;;5.81;54.25
20009;BME280;10165;42.662;23.260;2023-11-18T11:41:23;93648.56;;;5.82;54.63
20009;BME280;10165;42.662;23.260;2023-11-18T11:43:54;93648.19;;;5.51;55.04
20009;BME280;10165;42.662;23.260;2023-11-18T11:46:22;93649.66;;;5.40;55.31
20009;BME280;10165;42.662;23.260;2023-11-18T11:48:51;93645.72;;;5.87;54.24
20009;BME280;10165;42.662;23.260;2023-11-18T11:51:30;93643.13;;;5.58;54.54
20009;BME280;10165;42.662;23.260;2023-11-18T11:54:10;93630.19;;;5.77;54.17
20009;BME280;10165;42.662;23.260;2023-11-18T11:56:43;93653.00;;;5.49;55.04
20009;BME280;10165;42.662;23.260;2023-11-18T11:59:10;93639.28;;;5.55;55.30
20009;BME280;10165;42.662;23.260;2023-11-18T12:01:40;93631.75;;;5.37;55.35
20009;BME280;10165;42.662;23.260;2023-11-18T12:04:16;93639.13;;;5.93;54.25
20009;BME280;10165;42.662;23.260;2023-11-18T12:06:55;93636.16;;;5.53;55.10
20009;BME280;10165;42.662;23.260;2023-11-18T12:09:38;93626.91;;;5.80;54.35
20009;BME280;10165;42.662;23.260;2023-11-18T12:12:05;93635.78;;;6.29;53.82
20009;BME280;10165;42.662;23.260;2023-11-18T12:14:52;93639.59;;;5.74;54.41
20009;BME280;10165;42.662;23.260;2023-11-18T12:17:19;93635.06;;;5.54;54.95
20009;BME280;10165;42.662;23.260;2023-11-18T12:19:49;93637.44;;;6.09;54.20
20009;BME280;10165;42.662;23.260;2023-11-18T12:22:26;93646.28;;;5.72;54.35
20009;BME280;10165;42.662;23.260;2023-11-18T12:27:41;93654.88;;;5.69;54.96
20009;BME280;10165;42.662;23.260;2023-11-18T12:33:04;93635.94;;;6.00;54.34
20009;BME280;10165;42.662;23.260;2023-11-18T12:41:40;93648.47;;;6.11;54.15
20009;BME280;10165;42.662;23.260;2023-11-18T12:44:30;93654.84;;;6.10;53.39
20009;BME280;10165;42.662;23.260;2023-11-18T12:47:03;93643.56;;;5.81;54.35
20009;BME280;10165;42.662;23.260;2023-11-18T12:49:45;93648.19;;;5.92;54.50
20009;BME280;10165;42.662;23.260;2023-11-18T12:52:16;93658.88;;;5.34;55.63
20009;BME280;10165;42.662;23.260;2023-11-18T12:54:46;93653.22;;;5.64;54.98
20009;BME280;10165;42.662;23.260;2023-11-18T12:57:20;93649.50;;;5.86;54.81
20009;BME280;10165;42.662;23.260;2023-11-18T12:59:49;93639.84;;;6.14;54.04
20009;BME280;10165;42.662;23.260;2023-11-18T13:02:16;93672.81;;;5.93;54.18
20009;BME280;10165;42.662;23.260;2023-11-18T13:04:47;93639.00;;;5.69;54.26
20009;BME280;10165;42.662;23.260;2023-11-18T13:07:17;93650.25;;;5.66;55.17
20009;BME280;10165;42.662;23.260;2023-11-18T13:09:44;93658.25;;;5.78;54.97
20009;BME280;10165;42.662;23.260;2023-11-18T13:12:13;93669.19;;;5.97;54.41
20009;BME280;10165;42.662;23.260;2023-11-18T13:14:46;93678.53;;;5.74;54.52
20009;BME280;10165;42.662;23.260;2023-11-18T13:17:17;93675.97;;;5.65;55.50
20009;BME280;10165;42.662;23.260;2023-11-18T13:19:44;93676.09;;;5.69;55.25
20009;BME280;10165;42.662;23.260;2023-11-18T13:22:13;93675.69;;;6.00;54.51
20009;BME280;10165;42.662;23.260;2023-11-18T13:24:42;93678.53;;;5.74;54.73
20009;BME280;10165;42.662;23.260;2023-11-18T13:27:19;93705.81;;;4.95;56.90
20009;BME280;10165;42.662;23.260;2023-11-18T13:29:47;93693.22;;;5.21;57.11
20009;BME280;10165;42.662;23.260;2023-11-18T13:32:20;93694.06;;;5.63;55.59
20009;BME280;10165;42.662;23.260;2023-11-18T13:34:52;93715.88;;;5.40;55.85
20009;BME280;10165;42.662;23.260;2023-11-18T13:37:19;93707.81;;;5.57;55.50